9 Max
7 km/h
5 Mini

LFMY 300230Z AUTO 04003KT CAVOK 06/05 Q1014

TAF LFMY 281319Z 2813/2909 CNL